createdAt,value
2022-10-10T00:02:31.618Z,13.08
2022-10-10T00:07:53.234Z,13.14
2022-10-10T00:13:14.931Z,13.10
2022-10-10T00:18:36.886Z,12.98
2022-10-10T00:23:58.724Z,12.89
2022-10-10T00:29:20.043Z,12.77
2022-10-10T00:34:41.597Z,12.67
2022-10-10T00:40:04.223Z,12.56
2022-10-10T00:45:39.211Z,12.48
2022-10-10T00:51:05.734Z,12.24
2022-10-10T00:56:35.807Z,12.07
2022-10-10T01:01:57.229Z,11.90
2022-10-10T01:07:25.297Z,11.72
2022-10-10T01:12:53.149Z,11.47
2022-10-10T01:18:42.087Z,11.30
2022-10-10T01:24:09.641Z,11.12
2022-10-10T01:29:37.545Z,10.99
2022-10-10T01:35:08.497Z,10.91
2022-10-10T01:40:30.114Z,10.86
2022-10-10T01:45:53.382Z,10.88
2022-10-10T01:51:33.127Z,10.87
2022-10-10T01:57:09.865Z,10.77
2022-10-10T02:02:57.363Z,10.73
2022-10-10T02:08:33.433Z,10.70
2022-10-10T02:14:02.827Z,10.67
2022-10-10T02:19:25.717Z,10.55
2022-10-10T02:24:47.203Z,10.50
2022-10-10T02:30:09.536Z,10.51
2022-10-10T02:35:39.943Z,10.46
2022-10-10T02:41:04.919Z,10.46
2022-10-10T02:46:26.326Z,10.45
2022-10-10T02:51:47.686Z,10.40
2022-10-10T02:57:09.356Z,10.43
2022-10-10T03:02:30.932Z,10.40
2022-10-10T03:07:52.657Z,10.44
2022-10-10T03:13:13.897Z,10.47
2022-10-10T03:18:35.452Z,10.62
2022-10-10T03:23:57.705Z,10.83
2022-10-10T03:29:19.166Z,10.96
2022-10-10T03:34:40.688Z,11.01
2022-10-10T03:40:02.367Z,11.04
2022-10-10T03:45:24.968Z,11.01
2022-10-10T03:50:46.552Z,10.89
2022-10-10T03:56:08.132Z,10.89
2022-10-10T04:01:30.553Z,10.86
2022-10-10T04:06:52.061Z,10.88
2022-10-10T04:12:13.622Z,10.83
2022-10-10T04:17:35.391Z,10.92
2022-10-10T04:22:56.985Z,10.82
2022-10-10T04:28:19.325Z,10.74
2022-10-10T04:33:41.118Z,10.76
2022-10-10T04:39:02.937Z,10.79
2022-10-10T04:44:24.690Z,10.79
2022-10-10T04:49:46.058Z,10.92
2022-10-10T04:55:07.945Z,10.96
2022-10-10T05:00:29.466Z,10.86
2022-10-10T05:05:51.045Z,10.72
2022-10-10T05:11:12.366Z,10.64
2022-10-10T05:16:33.929Z,10.62
2022-10-10T05:21:55.474Z,10.60
2022-10-10T05:27:17.266Z,10.53
2022-10-10T05:32:38.937Z,10.46
2022-10-10T05:38:00.582Z,10.43
2022-10-10T05:43:22.032Z,10.32
2022-10-10T05:48:43.838Z,10.31
2022-10-10T05:54:05.627Z,10.31
2022-10-10T05:59:29.158Z,10.31
2022-10-10T06:04:50.378Z,10.35
2022-10-10T06:10:12.010Z,10.28
2022-10-10T06:15:33.594Z,10.30
2022-10-10T06:20:55.279Z,10.32
2022-10-10T06:26:17.532Z,10.37
2022-10-10T06:31:41.320Z,10.36
2022-10-10T06:37:02.514Z,10.44
2022-10-10T06:42:24.173Z,10.54
2022-10-10T06:47:51.835Z,10.67
2022-10-10T06:53:13.458Z,10.71
2022-10-10T06:58:35.662Z,10.62
2022-10-10T07:03:57.006Z,10.65
2022-10-10T07:09:19.615Z,10.86
2022-10-10T07:14:40.904Z,10.92
2022-10-10T07:20:02.466Z,11.05
2022-10-10T07:25:24.594Z,11.00
2022-10-10T07:30:46.784Z,10.95
2022-10-10T07:36:08.722Z,10.99
2022-10-10T07:41:30.049Z,11.05
2022-10-10T07:46:51.569Z,10.94
2022-10-10T07:52:14.557Z,10.89
2022-10-10T07:57:37.147Z,10.87
2022-10-10T08:02:58.729Z,10.74
2022-10-10T08:08:20.359Z,10.69
2022-10-10T08:13:42.657Z,10.65
2022-10-10T08:19:04.784Z,10.60
2022-10-10T08:24:26.448Z,10.59
2022-10-10T08:29:48.111Z,10.60
2022-10-10T08:35:09.573Z,10.61
2022-10-10T08:40:32.340Z,10.66
2022-10-10T08:45:57.634Z,10.64
2022-10-10T08:51:29.025Z,10.70
2022-10-10T08:56:50.899Z,10.73
2022-10-10T09:03:03.742Z,10.82
2022-10-10T09:08:39.564Z,10.90
2022-10-10T09:14:34.940Z,10.99
2022-10-10T09:20:20.871Z,11.01
2022-10-10T09:26:11.948Z,11.08
2022-10-10T09:31:43.003Z,11.13
2022-10-10T09:37:13.731Z,11.16
2022-10-10T09:42:39.905Z,11.17
2022-10-10T09:48:01.374Z,11.20
2022-10-10T09:53:22.577Z,11.19
2022-10-10T09:58:46.739Z,11.27
2022-10-10T10:04:31.155Z,11.46
2022-10-10T10:09:56.355Z,11.59
2022-10-10T10:15:24.418Z,11.59
2022-10-10T10:20:52.259Z,11.67
2022-10-10T10:26:46.960Z,11.62
2022-10-10T10:32:17.300Z,11.57
2022-10-10T10:38:14.194Z,11.50
2022-10-10T10:43:50.759Z,11.46
2022-10-10T10:49:24.679Z,11.33
2022-10-10T10:54:50.054Z,11.26
2022-10-10T11:00:47.247Z,11.24
2022-10-10T11:06:19.765Z,11.23
2022-10-10T11:11:52.441Z,11.20
2022-10-10T11:17:22.218Z,11.19
2022-10-10T11:22:52.683Z,11.17
2022-10-10T11:28:22.411Z,11.13
2022-10-10T11:33:49.004Z,11.03
2022-10-10T11:39:23.423Z,10.89
2022-10-10T11:45:02.542Z,10.79
2022-10-10T11:50:31.073Z,10.72
2022-10-10T11:56:13.611Z,10.67
2022-10-10T12:01:46.905Z,10.65
2022-10-10T12:07:18.582Z,10.57
2022-10-10T12:12:48.043Z,10.46
2022-10-10T12:18:39.572Z,10.40
2022-10-10T12:24:11.662Z,10.41
2022-10-10T12:30:08.189Z,10.43
2022-10-10T12:35:41.783Z,10.32
2022-10-10T12:41:16.507Z,10.27
2022-10-10T12:46:38.239Z,10.24
2022-10-10T12:52:20.379Z,10.21
2022-10-10T12:57:44.591Z,10.19
2022-10-10T13:03:17.283Z,10.07
2022-10-10T13:08:42.056Z,10.08
2022-10-10T13:14:08.785Z,10.05
2022-10-10T13:19:30.406Z,10.06
2022-10-10T13:24:52.821Z,10.02
2022-10-10T13:30:23.233Z,10.05
2022-10-10T13:35:47.274Z,10.08
2022-10-10T13:41:08.873Z,10.13
2022-10-10T13:46:33.133Z,10.22
2022-10-10T13:52:22.268Z,10.21
2022-10-10T13:57:43.949Z,10.26
2022-10-10T14:03:20.343Z,10.26
2022-10-10T14:08:41.942Z,10.22
2022-10-10T14:14:09.216Z,10.16
2022-10-10T14:19:31.723Z,10.16
2022-10-10T14:24:53.207Z,10.13
2022-10-10T14:30:15.345Z,10.14
2022-10-10T14:35:36.997Z,10.20
2022-10-10T14:41:00.532Z,10.26
2022-10-10T14:46:22.373Z,10.22
2022-10-10T14:51:43.838Z,10.17
2022-10-10T14:57:07.062Z,10.10
2022-10-10T15:02:30.979Z,10.09
2022-10-10T15:07:53.902Z,10.10
2022-10-10T15:13:16.329Z,10.23
2022-10-10T15:18:53.743Z,10.23
2022-10-10T15:24:17.167Z,10.13
2022-10-10T15:29:39.838Z,10.15
2022-10-10T15:35:01.186Z,10.08
2022-10-10T15:40:24.592Z,10.13
2022-10-10T15:45:55.944Z,10.05
2022-10-10T15:51:17.930Z,9.98
2022-10-10T15:56:39.697Z,9.93
2022-10-10T16:02:01.879Z,9.89
2022-10-10T16:07:29.197Z,9.88
2022-10-10T16:12:53.872Z,9.82
2022-10-10T16:18:15.216Z,9.81
2022-10-10T16:23:37.901Z,9.74
2022-10-10T16:29:01.297Z,9.66
2022-10-10T16:34:22.840Z,9.62
2022-10-10T16:39:44.503Z,9.61
2022-10-10T16:45:06.424Z,9.69
2022-10-10T16:50:27.531Z,9.68
2022-10-10T16:55:49.171Z,9.63
2022-10-10T17:01:14.723Z,9.63
2022-10-10T17:06:39.743Z,9.65
2022-10-10T17:12:01.090Z,9.67
2022-10-10T17:17:22.851Z,9.65
2022-10-10T17:22:44.144Z,9.57
2022-10-10T17:28:05.849Z,9.58
2022-10-10T17:33:27.321Z,9.49
2022-10-10T17:38:49.261Z,9.45
2022-10-10T17:44:10.976Z,9.29
2022-10-10T17:49:32.795Z,9.14
2022-10-10T17:54:54.547Z,9.04
2022-10-10T18:00:16.310Z,9.01
2022-10-10T18:05:37.807Z,8.98
2022-10-10T18:10:59.512Z,8.86
2022-10-10T18:16:22.736Z,8.83
2022-10-10T18:21:46.733Z,8.82
2022-10-10T18:27:08.290Z,8.72
2022-10-10T18:32:29.905Z,8.65
2022-10-10T18:37:51.844Z,8.64
2022-10-10T18:43:13.213Z,8.66
2022-10-10T18:48:35.895Z,8.66
2022-10-10T18:54:02.132Z,8.68
2022-10-10T18:59:23.739Z,8.66
2022-10-10T19:04:47.771Z,8.65
2022-10-10T19:10:09.235Z,8.68
2022-10-10T19:15:30.727Z,8.66
2022-10-10T19:20:59.660Z,8.64
2022-10-10T19:26:21.529Z,8.67
2022-10-10T19:31:42.672Z,8.68
2022-10-10T19:37:04.660Z,8.73
2022-10-10T19:42:26.307Z,8.80
2022-10-10T19:47:47.912Z,8.83
2022-10-10T19:53:10.448Z,8.88
2022-10-10T19:58:32.061Z,8.93
2022-10-10T20:03:53.981Z,8.94
2022-10-10T20:09:15.705Z,9.00
2022-10-10T20:14:37.394Z,9.00
2022-10-10T20:19:58.783Z,8.95
2022-10-10T20:25:20.195Z,8.93
2022-10-10T20:30:44.172Z,8.89
2022-10-10T20:36:06.012Z,8.97
2022-10-10T20:41:30.415Z,9.03
2022-10-10T20:46:52.056Z,8.93
2022-10-10T20:52:13.684Z,8.84
2022-10-10T20:57:35.126Z,8.76
2022-10-10T21:02:56.705Z,8.75
2022-10-10T21:08:17.935Z,8.76
2022-10-10T21:13:43.199Z,8.74
2022-10-10T21:19:06.513Z,8.76
2022-10-10T21:24:28.168Z,8.73
2022-10-10T21:29:49.535Z,8.75
2022-10-10T21:35:11.144Z,8.74
2022-10-10T21:40:32.403Z,8.70
2022-10-10T21:45:54.024Z,8.65
2022-10-10T21:51:16.275Z,8.60
2022-10-10T21:56:38.222Z,8.58
2022-10-10T22:01:59.450Z,8.51
2022-10-10T22:07:21.179Z,8.55
2022-10-10T22:12:43.649Z,8.58
2022-10-10T22:18:04.945Z,8.56
2022-10-10T22:23:26.554Z,8.59
2022-10-10T22:28:47.918Z,8.57
2022-10-10T22:34:09.708Z,8.59
2022-10-10T22:39:31.366Z,8.63
2022-10-10T22:44:52.682Z,8.64
2022-10-10T22:50:14.277Z,8.69
2022-10-10T22:55:35.924Z,8.67
2022-10-10T23:01:02.206Z,8.72
2022-10-10T23:06:23.858Z,8.71
2022-10-10T23:11:45.382Z,8.74
2022-10-10T23:17:07.007Z,8.80
2022-10-10T23:22:28.302Z,8.78
2022-10-10T23:27:50.228Z,8.76
2022-10-10T23:33:12.647Z,8.76
2022-10-10T23:38:34.494Z,8.76
2022-10-10T23:43:56.562Z,8.77
2022-10-10T23:49:17.843Z,8.77
2022-10-10T23:54:39.552Z,8.76
2022-10-10T23:59:55.833Z,8.84
